Latest Weather Observations for Esperance

IDW60801

Issued at 6:02 pm WST Tuesday 9 February 2016 (issued every 30 minutes, with the page automatically refreshed every 10 minutes)

About weather observations | Map of weather stations | Latest weather observations for WA | Other Formats
Station Details ID: 009789 Name: ESPERANCE Lat: -33.83 Lon: 121.89 Height: 25.0 m
Data from the previous 72 hours. | See also: Recent months at Esperance
Date/Time
WST
Temp
°C
App
Temp
°C
Dew
Point
Rel
Hum
%
Delta-T
°C
Wind Press
QNH
hPa
Press
MSL
hPa
Rain
since 9 am
mm
Dir
 
Spd
km/h
Gust
km/h
Spd
kts
Gust
kts
09/06:00pm 27.0 25.5 15.3 48 7.1 ESE 17 24 9 13 1015.2 1015.2 0.0
09/05:30pm 27.7 25.5 15.0 45 7.7 SE 20 28 11 15 1015.1 1015.1 0.0
09/05:00pm 28.2 25.9 14.6 43 8.2 SE 20 28 11 15 1014.8 1014.8 0.0
09/04:30pm 29.2 24.7 11.5 33 10.2 SE 26 33 14 18 1014.7 1014.7 0.0
09/04:00pm 28.7 24.7 13.1 38 9.2 SE 26 35 14 19 1014.7 1014.7 0.0
09/03:30pm 28.1 24.7 13.8 41 8.5 SSE 24 30 13 16 1014.7 1014.7 0.0
09/03:00pm 28.9 25.6 14.1 40 8.9 SSE 24 30 13 16 1014.8 1014.8 0.0
09/02:30pm 30.4 27.2 13.1 34 10.3 SSE 22 28 12 15 1014.7 1014.7 0.0
09/02:00pm 31.7 28.9 12.7 31 11.3 SSE 19 22 10 12 1014.9 1014.9 0.0
09/01:30pm 32.5 29.9 12.0 28 12.1 SE 17 20 9 11 1015.1 1015.1 0.0
09/01:00pm 31.1 29.2 13.0 33 10.8 SE 15 20 8 11 1015.5 1015.4 0.0
09/12:30pm 30.6 28.7 14.3 37 9.9 SE 17 22 9 12 1015.7 1015.6 0.0
09/12:00pm 30.0 28.1 14.3 38 9.5 SE 17 20 9 11 1016.1 1016.0 0.0
09/11:30am 30.9 29.4 13.1 33 10.6 SE 13 19 7 10 1016.5 1016.4 0.0
09/11:00am 30.6 29.4 14.0 36 10.0 SSE 13 19 7 10 1016.9 1016.8 0.0
09/10:30am 32.6 31.3 11.4 27 12.4 N 9 15 5 8 1017.3 1017.2 0.0
09/10:00am 30.1 28.5 11.7 32 10.7 NNE 11 17 6 9 1017.8 1017.7 0.0
09/09:30am 28.2 25.6 11.9 36 9.4 N 17 22 9 12 1018.1 1018.0 0.0
09/09:00am 26.2 23.8 12.8 43 7.8 N 17 22 9 12 1018.3 1018.2 0.0
09/08:30am 24.5 21.7 13.3 49 6.5 N 20 26 11 14 1018.5 1018.4 0.0
09/08:00am 22.3 20.8 14.1 59 4.8 NNE 15 20 8 11 1018.8 1018.7 0.0
09/07:30am 20.3 17.7 13.7 66 3.8 N 20 28 11 15 1018.9 1018.8 0.0
09/07:00am 18.8 16.1 13.5 71 3.0 N 20 30 11 16 1019.0 1018.9 0.0
09/06:30am 18.1 15.6 13.5 74 2.6 N 19 26 10 14 1018.9 1018.8 0.0
09/06:00am 17.3 15.2 13.6 79 2.1 NNE 17 30 9 16 1018.8 1018.7 0.0
09/05:30am 16.7 14.6 13.5 81 1.8 NNE 17 24 9 13 1018.7 1018.6 0.0
09/05:00am 16.9 14.2 13.5 80 1.9 NNE 20 30 11 16 1018.3 1018.2 0.0
09/04:30am 17.2 14.7 13.5 79 2.1 NNE 19 24 10 13 1018.3 1018.2 0.0
09/04:00am 17.1 15.4 13.6 80 2.0 NNE 15 24 8 13 1018.3 1018.2 0.0
09/03:30am 17.1 14.9 13.4 79 2.1 NNE 17 24 9 13 1018.6 1018.5 0.0
09/03:00am 17.2 14.6 13.3 78 2.2 NNE 19 22 10 12 1018.6 1018.5 0.0
09/02:30am 17.1 14.9 13.4 79 2.1 NNE 17 24 9 13 1018.8 1018.7 0.0
09/02:00am 16.9 15.9 13.3 79 2.0 NE 11 15 6 8 1019.1 1019.0 0.0
09/01:30am 17.1 15.7 13.4 79 2.1 NE 13 19 7 10 1019.1 1019.0 0.0
09/01:00am 17.5 15.7 13.2 76 2.4 NE 15 20 8 11 1019.4 1019.3 0.0
09/12:30am 17.8 16.3 13.2 74 2.6 NE 13 19 7 10 1019.7 1019.6 0.0
09/12:00am 18.1 16.3 13.3 73 2.7 NE 15 22 8 12 1019.9 1019.8 0.0
 
Date/Time
WST
Temp
°C
App
Temp
°C
Dew
Point
Rel
Hum
%
Delta-T
°C
Wind Press
QNH
hPa
Press
MSL
hPa
Rain
since 9 am
mm
Dir
 
Spd
km/h
Gust
km/h
Spd
kts
Gust
kts
08/11:30pm 18.4 17.0 13.3 72 2.9 ENE 13 22 7 12 1020.1 1020.0 0.0
08/11:00pm 18.8 17.3 13.1 69 3.2 ENE 13 20 7 11 1020.2 1020.1 0.0
08/10:30pm 19.3 17.4 12.9 66 3.6 ENE 15 20 8 11 1020.4 1020.3 0.0
08/10:00pm 19.9 18.4 13.0 64 3.9 ENE 13 22 7 12 1020.3 1020.2 0.0
08/09:30pm 20.8 18.4 12.7 59 4.6 E 17 28 9 15 1020.4 1020.3 0.0
08/09:00pm 21.7 19.4 12.9 57 5.0 E 17 26 9 14 1020.4 1020.3 0.0
08/08:30pm 21.0 20.3 15.4 70 3.3 ESE 13 19 7 10 1020.1 1020.0 0.0
08/08:00pm 21.4 20.4 15.5 69 3.5 ESE 15 20 8 11 1019.9 1019.8 0.0
08/07:30pm 21.6 20.8 16.1 71 3.3 SE 15 20 8 11 1019.7 1019.6 0.0
08/07:00pm 21.9 20.2 16.3 70 3.4 SE 20 32 11 17 1019.3 1019.2 0.0
08/06:30pm 22.6 19.6 15.8 65 4.1 ESE 26 33 14 18 1018.9 1018.8 0.0
08/06:00pm 23.0 19.6 15.9 64 4.3 ESE 28 37 15 20 1018.5 1018.4 0.0
08/05:30pm 23.7 20.8 16.1 62 4.6 SE 26 39 14 21 1018.5 1018.4 0.0
08/05:00pm 23.6 20.1 16.6 65 4.3 SE 30 41 16 22 1018.6 1018.5 0.0
08/04:30pm 24.2 20.0 16.3 61 4.8 SE 33 43 18 23 1018.8 1018.7 0.0
08/04:00pm 24.7 20.7 16.2 59 5.2 SE 32 44 17 24 1018.9 1018.8 0.0
08/03:30pm 25.1 21.1 16.3 58 5.4 SE 32 46 17 25 1019.1 1019.0 0.0
08/03:00pm 25.5 21.6 16.4 57 5.6 SE 32 44 17 24 1019.3 1019.2 0.0
08/02:30pm 25.5 21.5 16.2 56 5.7 SE 32 44 17 24 1019.6 1019.5 0.0
08/02:00pm 26.4 22.7 15.9 52 6.4 SE 30 43 16 23 1019.9 1019.8 0.0
08/01:30pm 26.2 23.2 16.8 56 5.8 SE 28 39 15 21 1020.2 1020.1 0.0
08/01:00pm 25.8 22.3 16.5 56 5.7 SE 30 39 16 21 1020.4 1020.3 0.0
08/12:30pm 25.9 22.6 16.1 54 6.0 SE 28 37 15 20 1020.5 1020.4 0.0
08/12:00pm 26.8 24.5 15.8 51 6.7 SSE 22 28 12 15 1021.0 1020.9 0.0
08/11:30am 27.7 25.7 13.9 42 8.2 SE 17 24 9 13 1021.2 1021.1 0.0
08/11:00am 29.8 27.8 11.4 32 10.6 NNE 13 20 7 11 1021.8 1021.7 0.0
08/10:30am 27.6 26.0 11.7 37 9.1 ENE 11 20 6 11 1022.2 1022.1 0.0
08/10:00am 27.0 25.9 13.2 42 8.1 NE 11 19 6 10 1022.4 1022.3 0.0
08/09:30am 25.4 23.0 12.5 44 7.4 NNE 17 24 9 13 1022.6 1022.5 0.0
08/09:00am 24.8 22.9 14.3 52 6.2 NNE 17 24 9 13 1022.8 1022.7 0.0
08/08:30am 22.6 20.6 14.0 58 5.0 NE 17 24 9 13 1023.0 1022.9 0.0
08/08:00am 21.2 19.3 14.3 64 4.0 NE 17 24 9 13 1023.3 1023.2 0.0
08/07:30am 20.2 19.3 14.9 71 3.1 NE 13 19 7 10 1023.3 1023.2 0.0
08/07:00am 18.8 18.6 14.7 77 2.4 ENE 9 17 5 9 1023.2 1023.1 0.0
08/06:30am 17.9 17.7 14.8 82 1.8 ENE 9 15 5 8 1023.0 1022.9 0.0
08/06:00am 16.9 16.6 14.5 86 1.4 ENE 9 13 5 7 1022.8 1022.7 0.0
08/05:30am 16.1 15.7 14.2 88 1.1 ENE 9 13 5 7 1022.4 1022.3 0.0
08/05:00am 16.2 15.9 14.3 88 1.1 ENE 9 15 5 8 1022.1 1022.0 0.0
08/04:30am 16.3 15.6 14.4 88 1.1 ENE 11 15 6 8 1022.0 1021.9 0.0
08/04:00am 16.6 15.5 14.3 86 1.3 NE 13 19 7 10 1021.8 1021.7 0.0
08/03:30am 16.6 15.6 14.5 87 1.2 NE 13 19 7 10 1021.7 1021.6 0.0
08/03:00am 16.7 16.0 14.4 86 1.3 ENE 11 17 6 9 1021.6 1021.5 0.0
08/02:30am 16.8 16.5 14.3 85 1.4 E 9 13 5 7 1021.6 1021.5 0.0
08/02:00am 17.0 16.7 14.4 85 1.5 ENE 9 15 5 8 1021.5 1021.4 0.0
08/01:30am 17.5 17.2 14.4 82 1.8 ENE 9 13 5 7 1021.7 1021.6 0.0
08/01:00am 17.9 17.2 14.4 80 2.0 ENE 11 15 6 8 1021.8 1021.7 0.0
08/12:30am 18.1 17.4 14.4 79 2.1 ENE 11 19 6 10 1021.9 1021.8 0.0
08/12:00am 18.5 17.8 14.3 76 2.4 ENE 11 17 6 9 1022.1 1022.0 0.0
 
Date/Time
WST
Temp
°C
App
Temp
°C
Dew
Point
Rel
Hum
%
Delta-T
°C
Wind Press
QNH
hPa
Press
MSL
hPa
Rain
since 9 am
mm
Dir
 
Spd
km/h
Gust
km/h
Spd
kts
Gust
kts
07/11:30pm 18.7 18.0 14.2 75 2.6 ENE 11 20 6 11 1022.1 1022.0 0.0
07/11:00pm 19.1 18.0 14.2 73 2.8 ENE 13 19 7 10 1022.1 1022.0 0.0
07/10:30pm 19.4 18.3 14.4 73 2.9 ENE 13 20 7 11 1022.2 1022.1 0.0
07/10:00pm 20.1 18.7 14.4 69 3.3 ENE 15 22 8 12 1022.1 1022.0 0.0
07/09:30pm 19.9 19.0 14.8 72 3.0 E 13 20 7 11 1022.1 1022.0 0.0
07/09:00pm 19.6 19.3 15.4 77 2.5 ESE 11 17 6 9 1021.9 1021.8 0.0
07/08:30pm 20.0 19.0 15.6 76 2.6 ESE 15 20 8 11 1021.6 1021.5 0.0
07/08:00pm 20.0 19.1 15.8 77 2.5 E 15 24 8 13 1021.3 1021.2 0.0
07/07:30pm 20.1 19.2 15.9 77 2.5 ESE 15 24 8 13 1021.0 1020.9 0.0
07/07:00pm 20.4 18.2 16.0 76 2.6 ESE 22 32 12 17 1020.7 1020.6 0.0
07/06:30pm 21.1 18.4 15.7 71 3.2 ESE 24 35 13 19 1020.3 1020.2 0.0
07/06:00pm 21.9 19.0 16.1 69 3.5 ESE 26 37 14 20 1020.2 1020.1 0.0
07/05:30pm 22.4 19.4 15.9 66 3.9 ESE 26 35 14 19 1019.7 1019.6 0.0
07/05:00pm 23.0 19.8 16.2 65 4.1 SE 28 35 15 19 1019.4 1019.3 0.0
07/04:30pm 23.2 19.5 16.1 64 4.3 SE 30 39 16 21 1019.3 1019.2 0.0
07/04:00pm 23.8 20.0 15.7 60 4.9 SE 30 43 16 23 1019.3 1019.2 0.0
07/03:30pm 23.9 20.1 15.8 60 4.9 SE 30 41 16 22 1019.2 1019.1 0.0
07/03:00pm 24.2 20.1 16.0 60 5.0 SE 32 41 17 22 1019.3 1019.2 0.0
07/02:30pm 23.6 19.9 16.0 62 4.6 SE 30 41 16 22 1019.3 1019.2 0.0
07/02:00pm 23.5 18.7 15.5 60 4.8 SE 35 44 19 24 1019.6 1019.5 0.0
07/01:30pm 23.5 19.5 16.1 63 4.5 SE 32 43 17 23 1019.6 1019.5 0.0
07/01:00pm 23.9 20.1 15.8 60 4.9 SSE 30 39 16 21 1019.7 1019.6 0.0
07/12:30pm 23.2 19.3 15.5 62 4.6 SSE 30 39 16 21 1019.9 1019.8 0.0
07/12:00pm 23.8 21.1 15.7 60 4.9 SSE 24 33 13 18 1020.3 1020.2 0.0
07/11:30am 23.4 20.9 16.1 63 4.4 SSE 24 32 13 17 1020.7 1020.6 0.0
07/11:00am 23.4 20.8 15.0 59 5.0 SSE 22 28 12 15 1020.8 1020.7 0.0
07/10:30am 24.0 21.7 14.1 54 5.8 SE 19 22 10 12 1021.1 1021.0 0.0
07/10:00am 23.5 21.6 14.3 56 5.4 SE 17 22 9 12 1021.3 1021.2 0.0
07/09:30am 24.0 23.3 14.3 54 5.7 E 11 17 6 9 1021.5 1021.4 0.0
07/09:00am 22.3 21.8 15.0 63 4.3 SE 11 19 6 10 1021.5 1021.4 0.0
07/08:30am 21.3 21.4 14.4 64 4.0 ENE 7 13 4 7 1021.5 1021.4 0.0
07/08:00am 20.4 20.3 14.9 70 3.2 ENE 9 17 5 9 1021.6 1021.5 0.0
07/07:30am 19.5 19.4 14.9 75 2.7 ENE 9 17 5 9 1021.6 1021.5 0.0
07/07:00am 18.2 17.5 15.3 83 1.7 E 13 17 7 9 1021.6 1021.5 0.0
07/06:30am 17.6 17.7 15.5 87 1.2 E 9 13 5 7 1021.3 1021.2 0.0
07/06:00am 16.4 16.5 15.4 94 0.6 E 9 15 5 8 1020.9 1020.8 0.0
07/05:30am 15.7 15.6 15.0 96 0.4 E 9 13 5 7 1020.5 1020.4 0.0
07/05:00am 15.8 15.3 14.9 94 0.5 E 11 15 6 8 1020.1 1020.0 0.0
07/04:30am 16.0 15.5 15.0 94 0.6 E 11 15 6 8 1019.8 1019.7 0.0
07/04:00am 16.1 16.1 15.1 94 0.6 E 9 13 5 7 1019.5 1019.4 0.0
07/03:30am 16.6 16.3 15.4 93 0.7 E 11 17 6 9 1019.2 1019.1 0.0
07/03:00am 17.4 17.1 15.5 89 1.1 E 11 15 6 8 1019.2 1019.1 0.0
07/02:30am 17.6 17.0 15.7 89 1.1 ESE 13 17 7 9 1019.1 1019.0 0.0
07/02:00am 17.3 17.2 15.9 91 0.8 ESE 11 15 6 8 1018.9 1018.8 0.0
07/01:30am 18.0 18.4 16.3 90 1.0 ESE 9 13 5 7 1018.6 1018.5 0.0
07/01:00am 18.3 17.8 15.9 86 1.4 ESE 13 17 7 9 1018.8 1018.7 0.0
07/12:30am 18.5 18.9 16.3 87 1.3 ESE 9 13 5 7 1018.8 1018.7 0.0
07/12:00am 18.9 18.4 16.0 83 1.7 ESE 13 15 7 8 1019.1 1019.0 0.0
 
Date/Time
WST
Temp
°C
App
Temp
°C
Dew
Point
Rel
Hum
%
Delta-T
°C
Wind Press
QNH
hPa
Press
MSL
hPa
Rain
since 9 am
mm
Dir
 
Spd
km/h
Gust
km/h
Spd
kts
Gust
kts
06/11:30pm 18.9 19.0 16.4 85 1.5 SE 11 15 6 8 1019.1 1019.0 0.0
06/11:00pm 19.0 19.7 17.0 88 1.2 ESE 9 13 5 7 1019.0 1018.9 0.0
06/10:30pm 19.3 19.7 17.3 88 1.2 SE 11 13 6 7 1019.1 1019.0 0.0
06/10:00pm 19.6 19.9 17.1 85 1.5 SE 11 17 6 9 1019.1 1019.0 0.0
06/09:30pm 19.9 19.6 17.4 85 1.5 SE 15 20 8 11 1019.0 1018.9 0.0
06/09:00pm 19.8 19.8 17.3 85 1.5 SSE 13 17 7 9 1018.8 1018.7 0.0
06/08:30pm 20.0 20.0 17.2 84 1.7 SSE 13 19 7 10 1018.7 1018.6 0.0
06/08:00pm 20.2 19.6 17.6 85 1.6 SSE 17 22 9 12 1018.4 1018.3 0.0
06/07:30pm 20.5 19.7 17.2 81 2.0 SSE 17 20 9 11 1018.1 1018.0 0.0
06/07:00pm 20.9 20.4 16.8 77 2.5 SSE 15 20 8 11 1017.8 1017.7 0.0
06/06:30pm 21.5 20.6 16.9 75 2.8 SSE 17 20 9 11 1017.4 1017.3 0.0

Other Formats:

Comma delimited format used in spreadsheet applications
http://www.bom.gov.au/fwo/IDW60801/IDW60801.94638.axf

JavaScript Object Notation format (JSON) in row-major order
http://www.bom.gov.au/fwo/IDW60801/IDW60801.94638.json